createdAt,value
2023-10-23T00:03:54.446Z,94.33
2023-10-23T00:06:21.297Z,94.54
2023-10-23T00:08:48.018Z,93.54
2023-10-23T00:11:28.636Z,94.05
2023-10-23T00:16:30.350Z,95.40
2023-10-23T00:18:57.233Z,95.69
2023-10-23T00:21:24.318Z,95.78
2023-10-23T00:23:51.550Z,95.53
2023-10-23T00:26:18.773Z,95.35
2023-10-23T00:28:45.464Z,95.08
2023-10-23T00:31:12.190Z,95.87
2023-10-23T00:33:39.030Z,96.38
2023-10-23T00:48:51.949Z,96.45
2023-10-23T00:51:20.913Z,97.29
2023-10-23T00:53:48.442Z,97.36
2023-10-23T00:56:15.455Z,97.03
2023-10-23T00:58:43.969Z,97.23
2023-10-23T01:03:57.627Z,97.95
2023-10-23T01:06:24.395Z,97.75
2023-10-23T01:08:51.161Z,97.98
2023-10-23T01:11:17.937Z,98.37
2023-10-23T01:13:44.703Z,98.77
2023-10-23T01:16:11.690Z,98.51
2023-10-23T01:18:38.592Z,98.50
2023-10-23T01:21:05.368Z,99.26
2023-10-23T01:23:37.650Z,99.33
2023-10-23T01:26:04.811Z,97.82
2023-10-23T01:28:31.647Z,97.26
2023-10-23T01:30:58.480Z,96.53
2023-10-23T01:33:25.713Z,96.59
2023-10-23T01:35:52.543Z,96.29
2023-10-23T01:38:19.831Z,96.91
2023-10-23T01:40:46.589Z,96.92
2023-10-23T01:43:13.449Z,96.18
2023-10-23T01:48:28.123Z,96.10
2023-10-23T01:50:54.916Z,96.03
2023-10-23T01:53:21.665Z,96.24
2023-10-23T01:55:48.450Z,97.15
2023-10-23T02:21:05.801Z,96.09
2023-10-23T02:23:48.923Z,96.90
2023-10-23T02:26:20.342Z,96.68
2023-10-23T02:28:47.091Z,97.15
2023-10-23T02:31:14.086Z,96.97
2023-10-23T02:36:16.573Z,96.53
2023-10-23T02:38:44.091Z,96.48
2023-10-23T02:41:10.819Z,96.22
2023-10-23T02:43:37.596Z,96.47
2023-10-23T02:46:05.931Z,96.40
2023-10-23T02:48:32.819Z,96.32
2023-10-23T02:50:59.988Z,96.10
2023-10-23T02:53:26.766Z,96.71
2023-10-23T02:55:53.484Z,96.69
2023-10-23T02:58:20.368Z,96.98
2023-10-23T03:00:47.140Z,97.21
2023-10-23T03:06:00.683Z,96.97
2023-10-23T03:08:27.392Z,96.69
2023-10-23T03:10:54.087Z,97.75
2023-10-23T03:13:20.792Z,98.07
2023-10-23T03:15:47.764Z,98.01
2023-10-23T03:18:14.524Z,98.01
2023-10-23T03:20:42.120Z,97.27
2023-10-23T03:23:09.864Z,97.20
2023-10-23T03:25:36.531Z,96.93
2023-10-23T03:28:03.251Z,96.68
2023-10-23T03:33:01.314Z,97.17
2023-10-23T03:40:36.631Z,96.58
2023-10-23T03:43:03.400Z,97.69
2023-10-23T03:48:04.519Z,97.73
2023-10-23T03:50:31.898Z,98.33
2023-10-23T03:52:59.287Z,97.66
2023-10-23T03:55:26.521Z,97.91
2023-10-23T03:57:53.426Z,97.84
2023-10-23T04:00:20.336Z,98.79
2023-10-23T04:02:47.471Z,99.99
2023-10-23T04:05:14.502Z,100.00
2023-10-23T04:07:41.204Z,100.00
2023-10-23T04:10:09.625Z,100.00
2023-10-23T04:15:14.618Z,100.00
2023-10-23T04:17:41.410Z,99.93
2023-10-23T04:20:09.127Z,99.50
2023-10-23T04:22:35.925Z,99.80
2023-10-23T04:25:02.691Z,99.89
2023-10-23T04:27:29.563Z,98.65
2023-10-23T04:29:58.687Z,98.83
2023-10-23T04:32:25.381Z,99.55
2023-10-23T04:34:52.064Z,100.00
2023-10-23T04:39:56.839Z,100.00
2023-10-23T04:42:23.636Z,99.64
2023-10-23T04:44:50.437Z,100.00
2023-10-23T04:47:17.204Z,99.90
2023-10-23T04:49:43.946Z,99.44
2023-10-23T04:52:10.800Z,99.57
2023-10-23T04:54:37.641Z,98.87
2023-10-23T04:57:04.603Z,97.74
2023-10-23T04:59:31.346Z,98.48
2023-10-23T05:01:58.100Z,98.78
2023-10-23T05:04:24.941Z,98.25
2023-10-23T05:06:51.866Z,99.06
2023-10-23T05:09:18.979Z,98.48
2023-10-23T05:11:45.701Z,97.69
2023-10-23T05:16:44.722Z,98.26
2023-10-23T05:19:11.449Z,98.73
2023-10-23T05:21:39.009Z,98.20
2023-10-23T05:24:06.092Z,97.89
2023-10-23T05:26:32.826Z,97.94
2023-10-23T05:28:59.527Z,97.65
2023-10-23T05:31:26.332Z,97.50
2023-10-23T05:33:53.447Z,97.64
2023-10-23T05:36:20.288Z,97.58
2023-10-23T05:38:47.038Z,99.25
2023-10-23T05:41:15.712Z,96.82
2023-10-23T05:43:42.454Z,97.05
2023-10-23T05:46:09.268Z,97.58
2023-10-23T05:48:38.022Z,98.24
2023-10-23T05:51:06.943Z,97.65
2023-10-23T05:53:34.572Z,97.16
2023-10-23T05:56:05.696Z,97.12
2023-10-23T05:58:35.501Z,97.56
2023-10-23T06:01:09.970Z,98.12
2023-10-23T06:03:37.519Z,97.40
2023-10-23T06:06:04.959Z,98.10
2023-10-23T06:08:31.973Z,98.45
2023-10-23T06:10:58.748Z,97.39
2023-10-23T06:13:25.504Z,96.97
2023-10-23T06:15:53.285Z,97.50
2023-10-23T06:18:20.347Z,97.86
2023-10-23T06:20:47.072Z,99.63
2023-10-23T06:23:13.835Z,100.00
2023-10-23T06:25:41.221Z,100.00
2023-10-23T06:28:08.302Z,99.34
2023-10-23T06:30:36.563Z,98.80
2023-10-23T06:33:04.214Z,98.59
2023-10-23T06:35:31.412Z,98.43
2023-10-23T06:37:58.166Z,97.03
2023-10-23T06:40:24.917Z,97.21
2023-10-23T06:42:51.639Z,97.17
2023-10-23T06:45:18.485Z,97.01
2023-10-23T06:47:49.437Z,97.53
2023-10-23T06:50:17.343Z,97.55
2023-10-23T06:52:45.007Z,97.24
2023-10-23T06:55:12.053Z,97.60
2023-10-23T06:57:38.791Z,97.32
2023-10-23T07:00:07.964Z,96.06
2023-10-23T07:02:34.873Z,95.87
2023-10-23T07:05:01.786Z,95.32
2023-10-23T07:07:30.745Z,95.56
2023-10-23T07:10:01.768Z,96.11
2023-10-23T07:12:29.072Z,97.09
2023-10-23T07:14:56.041Z,98.05
2023-10-23T07:17:22.826Z,98.73
2023-10-23T07:19:49.573Z,99.22
2023-10-23T07:22:16.287Z,98.59
2023-10-23T07:27:16.728Z,97.74
2023-10-23T07:29:46.346Z,96.93
2023-10-23T07:32:13.369Z,96.60
2023-10-23T07:34:40.068Z,96.51
2023-10-23T07:37:07.022Z,96.76
2023-10-23T07:39:36.158Z,96.94
2023-10-23T07:42:04.222Z,96.52
2023-10-23T07:44:31.042Z,94.56
2023-10-23T07:46:57.831Z,94.18
2023-10-23T07:49:24.988Z,95.16
2023-10-23T07:51:54.407Z,95.59
2023-10-23T07:54:21.835Z,94.98
2023-10-23T07:56:48.729Z,93.97
2023-10-23T07:59:15.565Z,94.19
2023-10-23T08:01:42.377Z,93.93
2023-10-23T08:04:10.256Z,93.56
2023-10-23T08:06:37.417Z,93.33
2023-10-23T08:09:05.153Z,93.76
2023-10-23T08:11:32.016Z,93.15
2023-10-23T08:13:59.878Z,93.75
2023-10-23T08:16:26.939Z,93.83
2023-10-23T08:18:53.908Z,93.57
2023-10-23T08:21:23.047Z,93.43
2023-10-23T08:23:54.505Z,93.97
2023-10-23T08:29:02.680Z,93.53
2023-10-23T08:34:00.498Z,92.57
2023-10-23T08:38:58.595Z,91.14
2023-10-23T08:41:27.212Z,90.40
2023-10-23T08:43:57.384Z,89.68
2023-10-23T08:46:33.772Z,89.71
2023-10-23T08:49:04.330Z,89.40
2023-10-23T08:51:32.586Z,89.38
2023-10-23T08:54:11.089Z,89.01
2023-10-23T08:56:42.744Z,88.54
2023-10-23T08:59:16.995Z,88.39
2023-10-23T09:04:20.811Z,88.08
2023-10-23T09:06:49.069Z,87.33
2023-10-23T09:09:17.076Z,87.29
2023-10-23T09:11:45.583Z,86.11
2023-10-23T09:14:24.919Z,85.79
2023-10-23T09:16:53.165Z,86.06
2023-10-23T09:19:34.110Z,86.73
2023-10-23T09:22:01.372Z,87.53
2023-10-23T09:24:28.272Z,88.24
2023-10-23T09:26:55.043Z,88.39
2023-10-23T09:29:25.665Z,88.50
2023-10-23T09:34:32.593Z,85.81
2023-10-23T09:36:59.449Z,85.96
2023-10-23T09:39:26.194Z,86.27
2023-10-23T09:41:54.334Z,87.32
2023-10-23T09:44:22.580Z,87.76
2023-10-23T09:46:52.213Z,88.41
2023-10-23T09:49:22.120Z,86.83
2023-10-23T09:51:51.495Z,85.89
2023-10-23T09:54:21.529Z,85.40
2023-10-23T09:56:52.543Z,84.79
2023-10-23T09:59:26.584Z,85.49
2023-10-23T10:01:58.510Z,85.05
2023-10-23T10:04:35.355Z,86.58
2023-10-23T10:07:09.087Z,86.96
2023-10-23T10:09:36.173Z,87.20
2023-10-23T10:12:05.039Z,86.68
2023-10-23T10:14:32.962Z,86.31
2023-10-23T10:17:01.201Z,87.67
2023-10-23T10:19:28.624Z,88.28
2023-10-23T10:22:08.166Z,89.78
2023-10-23T10:24:37.024Z,90.98
2023-10-23T10:27:05.122Z,89.76
2023-10-23T10:29:32.785Z,91.37
2023-10-23T10:32:14.111Z,91.19
2023-10-23T10:34:46.944Z,90.82
2023-10-23T10:39:48.028Z,91.24
2023-10-23T10:42:18.793Z,91.80
2023-10-23T10:45:11.674Z,92.00
2023-10-23T10:47:44.790Z,91.39
2023-10-23T10:52:44.926Z,91.20
2023-10-23T10:55:14.029Z,92.15
2023-10-23T10:57:46.185Z,93.61
2023-10-23T11:00:14.178Z,93.09
2023-10-23T11:02:41.725Z,92.91
2023-10-23T11:05:12.502Z,93.10
2023-10-23T11:07:40.113Z,93.10
2023-10-23T11:10:07.879Z,92.84
2023-10-23T11:12:35.014Z,91.95
2023-10-23T11:15:01.861Z,92.05
2023-10-23T11:17:28.712Z,91.69
2023-10-23T11:19:55.603Z,91.02
2023-10-23T11:22:25.603Z,91.13
2023-10-23T11:24:52.896Z,90.79
2023-10-23T11:27:19.679Z,90.69
2023-10-23T11:29:48.378Z,90.62
2023-10-23T11:32:17.105Z,90.85
2023-10-23T11:34:44.831Z,91.50
2023-10-23T11:37:12.942Z,92.34
2023-10-23T11:39:43.763Z,92.73
2023-10-23T11:42:11.996Z,93.05
2023-10-23T11:44:39.078Z,93.61
2023-10-23T11:47:06.542Z,93.99
2023-10-23T11:49:33.624Z,94.03
2023-10-23T11:52:01.498Z,94.26
2023-10-23T11:54:29.462Z,94.13
2023-10-23T11:56:59.525Z,93.02
2023-10-23T11:59:27.565Z,93.07
2023-10-23T12:01:56.528Z,92.53
2023-10-23T12:04:24.463Z,92.85
2023-10-23T12:06:51.393Z,92.91
2023-10-23T12:09:18.314Z,93.75
2023-10-23T12:11:45.082Z,94.29
2023-10-23T12:14:11.887Z,95.36
2023-10-23T12:16:38.937Z,95.35
2023-10-23T12:19:05.819Z,95.67
2023-10-23T12:21:33.453Z,94.67
2023-10-23T12:24:00.275Z,95.14
2023-10-23T12:26:27.326Z,95.53
2023-10-23T12:28:54.134Z,95.87
2023-10-23T12:31:23.945Z,96.05
2023-10-23T12:33:52.065Z,96.47
2023-10-23T12:36:19.160Z,96.05
2023-10-23T12:38:45.913Z,95.57
2023-10-23T12:41:13.168Z,96.07
2023-10-23T12:43:40.207Z,96.46
2023-10-23T12:46:07.196Z,96.60
2023-10-23T12:48:34.032Z,96.73
2023-10-23T12:51:01.278Z,96.44
2023-10-23T12:53:28.147Z,97.56
2023-10-23T12:55:54.960Z,97.35
2023-10-23T12:58:21.766Z,97.02
2023-10-23T13:00:48.566Z,97.90
2023-10-23T13:05:46.526Z,98.88
2023-10-23T13:08:13.297Z,98.89
2023-10-23T13:10:41.614Z,99.04
2023-10-23T13:13:08.413Z,99.33
2023-10-23T13:15:35.392Z,100.00
2023-10-23T13:18:04.007Z,100.00
2023-10-23T13:21:29.850Z,100.00
2023-10-23T13:23:17.578Z,100.00
2023-10-23T13:25:45.721Z,100.00
2023-10-23T13:28:18.906Z,100.00
2023-10-23T13:30:45.729Z,100.00
2023-10-23T13:33:13.046Z,100.00
2023-10-23T13:38:12.982Z,100.00
2023-10-23T13:40:39.752Z,100.00
2023-10-23T13:43:06.528Z,100.00
2023-10-23T13:45:33.242Z,100.00
2023-10-23T13:47:59.958Z,100.00
2023-10-23T13:50:26.750Z,100.00
2023-10-23T13:52:53.495Z,100.00
2023-10-23T13:55:20.959Z,100.00
2023-10-23T13:57:47.740Z,100.00
2023-10-23T14:00:17.226Z,100.00
2023-10-23T14:02:44.379Z,100.00
2023-10-23T14:05:11.380Z,100.00
2023-10-23T14:07:38.274Z,100.00
2023-10-23T14:10:05.627Z,100.00
2023-10-23T14:12:32.381Z,100.00
2023-10-23T14:14:59.069Z,100.00
2023-10-23T14:17:26.419Z,100.00
2023-10-23T14:19:53.246Z,100.00
2023-10-23T14:22:20.029Z,100.00
2023-10-23T14:24:49.295Z,100.00
2023-10-23T14:27:16.349Z,100.00
2023-10-23T14:29:43.202Z,100.00
2023-10-23T14:32:10.213Z,100.00
2023-10-23T14:34:36.943Z,100.00
2023-10-23T14:37:04.270Z,98.27
2023-10-23T14:39:31.145Z,98.51
2023-10-23T14:41:58.116Z,96.27
2023-10-23T14:44:25.292Z,96.13
2023-10-23T14:46:52.949Z,95.59
2023-10-23T14:49:20.465Z,97.04
2023-10-23T14:51:47.292Z,96.78
2023-10-23T14:54:14.046Z,93.50
2023-10-23T14:56:40.748Z,91.38
2023-10-23T14:59:07.499Z,92.23
2023-10-23T15:01:34.601Z,91.60
2023-10-23T15:06:38.838Z,90.80
2023-10-23T15:09:06.802Z,91.45
2023-10-23T15:11:34.057Z,90.06
2023-10-23T15:14:00.754Z,92.94
2023-10-23T15:16:27.514Z,91.92
2023-10-23T15:18:54.644Z,93.75
2023-10-23T15:21:21.716Z,96.67
2023-10-23T15:23:48.413Z,97.34
2023-10-23T15:26:15.142Z,98.29
2023-10-23T15:28:42.228Z,99.40
2023-10-23T15:31:09.212Z,99.67
2023-10-23T15:33:37.230Z,99.39
2023-10-23T15:36:06.378Z,99.26
2023-10-23T15:38:34.376Z,98.87
2023-10-23T15:41:12.188Z,95.40
2023-10-23T15:43:40.486Z,95.27
2023-10-23T15:46:13.040Z,91.69
2023-10-23T15:48:40.814Z,89.78
2023-10-23T15:51:07.786Z,88.93
2023-10-23T15:53:35.026Z,89.58
2023-10-23T15:56:02.026Z,89.73
2023-10-23T15:58:29.795Z,89.34
2023-10-23T16:00:58.089Z,91.51
2023-10-23T16:03:25.232Z,91.66
2023-10-23T16:05:52.422Z,92.46
2023-10-23T16:08:19.282Z,92.72
2023-10-23T16:10:48.726Z,91.79
2023-10-23T16:13:17.045Z,91.20
2023-10-23T16:15:44.517Z,91.15
2023-10-23T16:18:12.347Z,91.99
2023-10-23T16:20:40.109Z,92.77
2023-10-23T16:23:06.956Z,93.37
2023-10-23T16:25:38.506Z,94.71
2023-10-23T16:28:05.761Z,94.00
2023-10-23T16:30:32.611Z,93.90
2023-10-23T16:32:59.444Z,93.79
2023-10-23T16:35:26.504Z,95.88
2023-10-23T16:37:53.614Z,96.28
2023-10-23T16:40:20.399Z,97.51
2023-10-23T16:42:50.671Z,92.95
2023-10-23T16:45:17.493Z,92.94
2023-10-23T16:47:44.286Z,94.49
2023-10-23T16:50:11.419Z,96.61
2023-10-23T16:52:38.556Z,97.77
2023-10-23T16:55:08.764Z,97.94
2023-10-23T16:57:36.121Z,95.14
2023-10-23T17:00:02.887Z,94.55
2023-10-23T17:02:29.847Z,94.84
2023-10-23T17:04:56.982Z,96.55
2023-10-23T17:07:24.765Z,95.94
2023-10-23T17:09:51.496Z,96.02
2023-10-23T17:12:18.332Z,97.39
2023-10-23T17:14:45.123Z,96.72
2023-10-23T17:17:12.262Z,98.68
2023-10-23T17:19:41.868Z,99.07
2023-10-23T17:22:09.713Z,98.87
2023-10-23T17:24:36.765Z,100.00
2023-10-23T17:27:03.997Z,100.00
2023-10-23T17:29:31.710Z,100.00
2023-10-23T17:31:59.318Z,100.00
2023-10-23T17:34:29.718Z,100.00
2023-10-23T17:36:57.252Z,100.00
2023-10-23T17:39:24.098Z,100.00
2023-10-23T17:41:50.780Z,100.00
2023-10-23T17:44:17.437Z,100.00
2023-10-23T17:46:44.240Z,99.88
2023-10-23T17:49:11.291Z,99.59
2023-10-23T17:51:37.970Z,100.00
2023-10-23T17:54:07.210Z,100.00
2023-10-23T17:56:37.135Z,100.00
2023-10-23T17:59:04.911Z,100.00
2023-10-23T18:01:31.959Z,100.00
2023-10-23T18:03:59.905Z,100.00
2023-10-23T18:06:27.351Z,100.00
2023-10-23T18:08:54.569Z,100.00
2023-10-23T18:11:21.591Z,100.00
2023-10-23T18:13:48.375Z,100.00
2023-10-23T18:16:15.305Z,100.00
2023-10-23T18:18:42.227Z,100.00
2023-10-23T18:21:08.945Z,100.00
2023-10-23T18:23:35.768Z,100.00
2023-10-23T18:26:02.642Z,100.00
2023-10-23T18:28:29.730Z,100.00
2023-10-23T18:31:00.995Z,100.00
2023-10-23T18:33:27.967Z,98.08
2023-10-23T18:36:01.485Z,97.10
2023-10-23T18:38:28.707Z,97.00
2023-10-23T18:40:56.219Z,97.74
2023-10-23T18:43:26.077Z,97.84
2023-10-23T18:45:52.909Z,99.11
2023-10-23T18:48:19.858Z,98.76
2023-10-23T18:50:46.715Z,99.05
2023-10-23T18:53:13.479Z,97.86
2023-10-23T18:55:40.310Z,97.26
2023-10-23T18:58:07.045Z,97.22
2023-10-23T19:03:12.035Z,97.15
2023-10-23T19:05:39.448Z,97.28
2023-10-23T19:08:06.707Z,97.51
2023-10-23T19:10:33.462Z,97.82
2023-10-23T19:13:00.304Z,98.09
2023-10-23T19:15:27.033Z,98.30
2023-10-23T19:17:55.212Z,98.96
2023-10-23T19:20:23.888Z,98.68
2023-10-23T19:22:51.030Z,98.26
2023-10-23T19:25:18.497Z,98.65
2023-10-23T19:27:45.634Z,98.15
2023-10-23T19:30:13.645Z,98.14
2023-10-23T19:32:42.173Z,98.75
2023-10-23T19:35:10.773Z,98.53
2023-10-23T19:37:38.856Z,99.20
2023-10-23T19:40:06.285Z,99.25
2023-10-23T19:42:40.551Z,99.06
2023-10-23T19:45:09.236Z,99.36
2023-10-23T19:47:36.919Z,100.00
2023-10-23T19:50:05.045Z,100.00
2023-10-23T19:52:35.719Z,100.00
2023-10-23T19:55:04.365Z,100.00
2023-10-23T19:57:50.059Z,100.00
2023-10-23T20:00:18.213Z,100.00
2023-10-23T20:02:45.034Z,100.00
2023-10-23T20:05:11.805Z,100.00
2023-10-23T20:07:38.702Z,100.00
2023-10-23T20:10:06.637Z,100.00
2023-10-23T20:12:33.501Z,100.00
2023-10-23T20:15:00.275Z,100.00
2023-10-23T20:17:27.099Z,100.00
2023-10-23T20:19:54.316Z,100.00
2023-10-23T20:22:21.119Z,100.00
2023-10-23T20:24:47.789Z,100.00
2023-10-23T20:27:14.935Z,100.00
2023-10-23T20:29:41.904Z,100.00
2023-10-23T20:32:09.053Z,100.00
2023-10-23T20:34:35.873Z,100.00
2023-10-23T20:37:03.127Z,100.00
2023-10-23T20:39:29.993Z,99.91
2023-10-23T20:44:28.939Z,99.50
2023-10-23T20:49:22.477Z,100.00
2023-10-23T20:51:49.357Z,100.00
2023-10-23T20:54:16.064Z,100.00
2023-10-23T20:56:43.086Z,100.00
2023-10-23T20:59:10.188Z,100.00
2023-10-23T21:01:37.353Z,100.00
2023-10-23T21:04:04.719Z,100.00
2023-10-23T21:06:32.284Z,100.00
2023-10-23T21:08:58.970Z,100.00
2023-10-23T21:11:25.770Z,100.00
2023-10-23T21:13:52.486Z,100.00
2023-10-23T21:16:19.385Z,100.00
2023-10-23T21:18:46.219Z,100.00
2023-10-23T21:21:12.924Z,100.00
2023-10-23T21:23:39.627Z,100.00
2023-10-23T21:26:07.928Z,100.00
2023-10-23T21:28:34.755Z,100.00
2023-10-23T21:33:34.277Z,100.00
2023-10-23T21:36:00.994Z,100.00
2023-10-23T21:38:28.196Z,100.00
2023-10-23T21:40:55.053Z,100.00
2023-10-23T21:43:21.814Z,100.00
2023-10-23T21:45:55.929Z,100.00
2023-10-23T21:48:28.901Z,100.00
2023-10-23T21:50:55.815Z,100.00
2023-10-23T21:53:22.819Z,100.00
2023-10-23T21:55:49.862Z,100.00
2023-10-23T21:58:16.780Z,100.00
2023-10-23T22:00:44.387Z,100.00
2023-10-23T22:03:11.254Z,100.00
2023-10-23T22:05:38.308Z,100.00
2023-10-23T22:08:05.348Z,100.00
2023-10-23T22:10:32.378Z,100.00
2023-10-23T22:13:00.017Z,100.00
2023-10-23T22:15:26.788Z,100.00
2023-10-23T22:17:56.372Z,100.00
2023-10-23T22:25:25.703Z,100.00
2023-10-23T22:27:52.606Z,100.00
2023-10-23T22:30:19.330Z,100.00
2023-10-23T22:32:51.767Z,100.00
2023-10-23T22:35:24.081Z,100.00
2023-10-23T22:38:05.902Z,100.00
2023-10-23T22:40:37.474Z,100.00
2023-10-23T22:43:04.315Z,100.00
2023-10-23T22:45:31.120Z,100.00
2023-10-23T22:47:57.893Z,100.00
2023-10-23T22:50:25.210Z,100.00
2023-10-23T22:52:52.199Z,100.00
2023-10-23T22:55:19.273Z,100.00
2023-10-23T22:57:46.768Z,100.00
2023-10-23T23:00:15.507Z,100.00
2023-10-23T23:02:42.506Z,100.00
2023-10-23T23:05:09.775Z,100.00
2023-10-23T23:07:41.182Z,100.00
2023-10-23T23:10:10.861Z,100.00
2023-10-23T23:12:37.902Z,100.00
2023-10-23T23:20:22.212Z,100.00
2023-10-23T23:22:49.184Z,100.00
2023-10-23T23:25:16.062Z,100.00
2023-10-23T23:27:42.751Z,100.00
2023-10-23T23:30:10.796Z,100.00
2023-10-23T23:32:37.761Z,100.00
2023-10-23T23:35:04.936Z,100.00
2023-10-23T23:37:31.805Z,100.00
2023-10-23T23:39:58.579Z,100.00
2023-10-23T23:42:25.250Z,100.00
2023-10-23T23:44:52.317Z,100.00
2023-10-23T23:47:18.985Z,100.00
2023-10-23T23:49:47.026Z,100.00
2023-10-23T23:52:15.187Z,100.00
2023-10-23T23:54:42.472Z,100.00
2023-10-23T23:57:09.502Z,100.00
2023-10-23T23:59:36.292Z,100.00
